Aérodrome :
LOGIN :

S'inscrire | Disclaimer

   EN    FR    IT 

 










Légende :    VFR   VFR Marginal   IFR   IFR Intensif   IFR Très Intensif
Visi : 
Plafond : 
>= 8 km
>= 3000ft
5 à 8 km
1000 à 3000 ft
1500m à 5 km
500 à 1000 ft
800 à 1500m
200 à 500 ft
< 800m
< 200 ft
Symboles :   Orages  Brouillard  Fortes neiges  Fortes précipitations  Vent > 20 kt
SIGMETs :   Divers  Orages  Givrage  Turbulence  Onde Orograph.  Cendres Volcan.






- Altitude de l'aérodrome : 291 ft
- Code IATA : ORY


LFPO - Paris-Orly

DERNIER METAR :
  • 071400Z 24008KT 210V270 9999 FEW018 BKN038 11/08 Q1018 NOSIG

METARs EXPIRÉS :
  • 071330Z 23009KT 9999 SCT017 BKN034 11/08 Q1018 NOSIG
  • 071300Z 23008KT 9999 FEW015 BKN044 11/08 Q1018 NOSIG
  • 071230Z 25006KT 220V280 9999 FEW014 BKN040 11/08 Q1018 NOSIG
  • 071200Z 23010KT 9999 FEW011 BKN038 11/08 Q1018 NOSIG
  • 071130Z 24009KT 9999 FEW011 BKN041 11/09 Q1018 NOSIG

TAF TAF LFPO
Valide du 07 à 12h jusqu'au 08 à 18h UTC


071100Z 0712/0818 22008KT 9999 SCT008 BKN025
PROB30
TEMPO 0715/0721 BKN008
PROB30
TEMPO 0721/0803 4000 -DZ BKN004
BECMG 0803/0806 22015G30KT BKN010
PROB30
TEMPO 0803/0806 4000 -RA BKN004
TEMPO 0807/0810 4000 RA BKN008
TEMPO 0810/0812 4000 SHRA BKN008 SCT015TCU
BECMG 0812/0814 25012KT SCT020 SCT040
ATIS : +33 1 49 75 65 80



MET'MAP, la Météo Aéronautique d'un coup d'oeil ! - Copyright ORBIFLY Décembre 2007 - Disclaimer

ORBIFLY MET'MAP TEAM :

Programmation & Développement : Alexandra Zaïnal
Sur une idée originale de : Baudouin d'Aumeries
Assistance à la programmation : Marc-Olivier Méhu
Soutien technique & logistique : Manuel Goepfert

Contact : metmap@orbifly.com




SOURCES & CREDITS :

   NOAA